Time;durP1;ratioP1;P1;durP2;ratioP2;P2;SDS_P1;SDS_P2;PMS_P1;PMS_P2;Temp;Humidity;BMP_temperature;BMP_pressure;BME280_temperature;BME280_humidity;BME280_pressure;Samples;Min_cycle;Max_cycle;Signal;HPM_P1;HPM_P2
2021/12/29 00:02:15;;;;;;;35.20;20.25;;;10.70;99.90;;;;;;5080125;28;20032;-77
2021/12/29 00:04:41;;;;;;;29.70;19.23;;;10.70;99.90;;;;;;5082351;28;20028;-76
2021/12/29 00:07:10;;;;;;;34.08;19.83;;;10.70;99.90;;;;;;5076143;28;20461;-76
2021/12/29 00:09:37;;;;;;;38.25;20.08;;;10.70;99.90;;;;;;5082969;28;20054;-77
2021/12/29 00:12:04;;;;;;;33.13;20.40;;;10.70;99.90;;;;;;5078954;28;20121;-76
2021/12/29 00:14:30;;;;;;;32.50;20.60;;;10.70;99.90;;;;;;5088166;28;20161;-77
2021/12/29 00:16:58;;;;;;;36.13;20.25;;;10.60;99.90;;;;;;5082720;28;20497;-76
2021/12/29 00:19:23;;;;;;;34.17;18.95;;;10.70;99.90;;;;;;5077827;28;20013;-76
2021/12/29 00:21:49;;;;;;;32.63;19.52;;;10.60;99.90;;;;;;5083773;28;20035;-76
2021/12/29 00:24:15;;;;;;;27.98;18.13;;;10.60;99.90;;;;;;5086654;28;20048;-76
2021/12/29 00:26:41;;;;;;;30.23;18.73;;;10.60;99.90;;;;;;5084128;28;20489;-77
2021/12/29 00:29:07;;;;;;;27.05;16.83;;;10.50;99.90;;;;;;5087520;28;20097;-77
2021/12/29 00:31:33;;;;;;;27.55;16.33;;;10.60;99.90;;;;;;5079095;28;20064;-77
2021/12/29 00:33:59;;;;;;;28.67;17.10;;;10.60;99.90;;;;;;5087625;28;20109;-77
2021/12/29 00:36:25;;;;;;;24.88;15.75;;;10.60;99.90;;;;;;5084383;28;20433;-76
2021/12/29 00:38:51;;;;;;;29.60;16.27;;;10.60;99.90;;;;;;5084680;28;20623;-76
2021/12/29 00:41:18;;;;;;;33.33;17.20;;;10.60;99.90;;;;;;5080798;28;20056;-77
2021/12/29 00:43:44;;;;;;;25.65;14.98;;;10.60;99.90;;;;;;5077276;28;20035;-78
2021/12/29 00:46:12;;;;;;;29.35;17.67;;;10.60;99.90;;;;;;5082368;28;20032;-77
2021/12/29 00:48:42;;;;;;;24.05;14.43;;;10.70;99.90;;;;;;5088615;28;20016;-77
2021/12/29 00:51:08;;;;;;;27.45;15.50;;;10.60;99.90;;;;;;5089749;28;20028;-76
2021/12/29 00:53:35;;;;;;;24.58;15.60;;;10.60;99.90;;;;;;5087302;28;20094;-76
2021/12/29 00:56:02;;;;;;;23.40;15.63;;;10.70;99.90;;;;;;5087246;28;20043;-77
2021/12/29 00:58:29;;;;;;;27.80;16.02;;;10.70;99.90;;;;;;5090888;28;20028;-77
2021/12/29 01:00:55;;;;;;;26.48;15.18;;;10.60;99.90;;;;;;5092491;28;20016;-77
2021/12/29 01:03:21;;;;;;;25.48;14.52;;;10.60;99.90;;;;;;5092386;28;20039;-77
2021/12/29 01:05:47;;;;;;;27.63;16.45;;;10.70;99.90;;;;;;5090330;28;20384;-76
2021/12/29 01:08:14;;;;;;;28.10;16.55;;;10.70;99.90;;;;;;5085820;28;20055;-77
2021/12/29 01:10:41;;;;;;;24.75;15.77;;;10.70;99.90;;;;;;5089581;28;20118;-77
2021/12/29 01:13:10;;;;;;;22.38;16.85;;;10.60;99.90;;;;;;5088557;28;20020;-77
2021/12/29 01:18:27;;;;;;;29.17;14.63;;;10.70;99.90;;;;;;5082479;28;20507;-78
2021/12/29 01:20:52;;;;;;;28.20;17.88;;;10.60;99.90;;;;;;5083539;28;20027;-77
2021/12/29 01:23:19;;;;;;;27.33;15.90;;;10.70;99.90;;;;;;5086111;28;20054;-77
2021/12/29 01:25:45;;;;;;;28.83;16.33;;;10.70;99.90;;;;;;5088743;28;20065;-77
2021/12/29 01:28:10;;;;;;;26.42;17.45;;;10.70;99.90;;;;;;5087863;28;20035;-77
2021/12/29 01:30:36;;;;;;;27.55;17.05;;;10.70;99.90;;;;;;5090006;28;20028;-77
2021/12/29 01:33:05;;;;;;;27.70;17.90;;;10.70;99.90;;;;;;5086017;28;20441;-77
2021/12/29 01:35:32;;;;;;;23.98;16.05;;;10.70;99.90;;;;;;5080187;28;20491;-77
2021/12/29 01:37:59;;;;;;;27.45;16.85;;;10.70;99.90;;;;;;5085633;28;20048;-76
2021/12/29 01:40:25;;;;;;;28.73;17.75;;;10.70;99.90;;;;;;5086595;28;20040;-77
2021/12/29 01:42:51;;;;;;;33.05;16.80;;;10.70;99.90;;;;;;5084718;28;20062;-76
2021/12/29 01:45:16;;;;;;;25.75;17.27;;;10.70;99.90;;;;;;5086791;28;20024;-76
2021/12/29 01:47:42;;;;;;;30.58;18.90;;;10.70;99.90;;;;;;5080168;28;20093;-76
2021/12/29 01:50:10;;;;;;;29.15;17.85;;;10.70;99.90;;;;;;5080738;28;20502;-77
2021/12/29 01:52:39;;;;;;;26.05;16.63;;;10.70;99.90;;;;;;5084862;28;20490;-76
2021/12/29 01:55:09;;;;;;;30.77;17.45;;;10.60;99.90;;;;;;5086798;28;20097;-76
2021/12/29 01:57:36;;;;;;;26.15;16.58;;;10.60;99.90;;;;;;5077274;28;20029;-77
2021/12/29 02:00:05;;;;;;;30.80;17.05;;;10.70;99.90;;;;;;5084146;28;20044;-76
2021/12/29 02:02:31;;;;;;;29.20;16.95;;;10.60;99.90;;;;;;5083276;28;20056;-76
2021/12/29 02:04:57;;;;;;;28.83;17.92;;;10.60;99.90;;;;;;5078332;28;20120;-76
2021/12/29 02:07:22;;;;;;;30.95;18.05;;;10.60;99.90;;;;;;5083876;28;20031;-76
2021/12/29 02:09:48;;;;;;;25.35;16.67;;;10.70;99.90;;;;;;5089874;28;20024;-77
2021/12/29 02:12:16;;;;;;;34.53;17.67;;;10.70;99.90;;;;;;5081803;28;20103;-76
2021/12/29 02:14:43;;;;;;;32.83;18.52;;;10.60;99.90;;;;;;5083640;28;20028;-76
2021/12/29 02:17:09;;;;;;;37.15;19.63;;;10.60;99.90;;;;;;5081070;28;20041;-76
2021/12/29 02:19:42;;;;;;;29.70;17.23;;;10.60;99.90;;;;;;5081248;28;20031;-76
2021/12/29 02:22:14;;;;;;;33.28;18.92;;;10.60;99.90;;;;;;5082306;28;20051;-76
2021/12/29 02:24:43;;;;;;;28.88;16.60;;;10.60;99.90;;;;;;5087037;28;20012;-77
2021/12/29 02:27:11;;;;;;;35.97;19.27;;;10.70;99.90;;;;;;5081793;28;20024;-77
2021/12/29 02:29:40;;;;;;;27.20;17.02;;;10.60;99.90;;;;;;5083095;28;20506;-77
2021/12/29 02:32:06;;;;;;;33.88;19.20;;;10.70;99.90;;;;;;5083509;28;20017;-77
2021/12/29 02:34:33;;;;;;;24.42;14.52;;;10.60;99.90;;;;;;5084248;28;20036;-77
2021/12/29 02:37:02;;;;;;;33.20;18.35;;;10.70;99.90;;;;;;5090384;28;20036;-77
2021/12/29 02:39:31;;;;;;;32.33;19.73;;;10.70;99.90;;;;;;5079741;28;20059;-77
2021/12/29 02:42:01;;;;;;;31.58;19.15;;;10.70;99.90;;;;;;5082762;28;20031;-77
2021/12/29 02:44:29;;;;;;;37.72;19.77;;;10.70;99.90;;;;;;5079880;28;20112;-77
2021/12/29 02:46:56;;;;;;;31.55;17.52;;;10.70;99.90;;;;;;5078898;28;20381;-78
2021/12/29 02:49:23;;;;;;;35.83;18.50;;;10.70;99.90;;;;;;5079038;28;20059;-77
2021/12/29 02:51:49;;;;;;;35.85;20.08;;;10.70;99.90;;;;;;5082211;28;20023;-77
2021/12/29 02:54:16;;;;;;;39.25;19.88;;;10.70;99.90;;;;;;5081205;28;20108;-76
2021/12/29 02:56:43;;;;;;;36.35;18.60;;;10.70;99.90;;;;;;5085041;28;20074;-77
2021/12/29 02:59:08;;;;;;;41.72;19.98;;;10.60;99.90;;;;;;5086091;28;20028;-77
2021/12/29 03:01:34;;;;;;;44.20;19.30;;;10.70;99.90;;;;;;5077676;28;20384;-77
2021/12/29 03:04:04;;;;;;;35.25;18.13;;;10.70;99.90;;;;;;5084135;28;20067;-77
2021/12/29 03:06:31;;;;;;;34.30;18.08;;;10.70;99.90;;;;;;5082151;28;20024;-77
2021/12/29 03:08:56;;;;;;;34.08;18.67;;;10.70;99.90;;;;;;5087016;28;20024;-77
2021/12/29 03:11:22;;;;;;;34.00;17.42;;;10.60;99.90;;;;;;5087126;28;20040;-77
2021/12/29 03:13:48;;;;;;;36.67;19.23;;;10.60;99.90;;;;;;5082610;28;20051;-77
2021/12/29 03:16:14;;;;;;;37.10;19.10;;;10.60;99.90;;;;;;5083668;28;20063;-77
2021/12/29 03:18:40;;;;;;;33.92;17.85;;;10.60;99.90;;;;;;5084433;28;20058;-77
2021/12/29 03:21:06;;;;;;;36.90;18.58;;;10.60;99.90;;;;;;5082896;28;20034;-77
2021/12/29 03:23:32;;;;;;;30.55;16.77;;;10.60;99.90;;;;;;5078607;28;20494;-78
2021/12/29 03:25:58;;;;;;;36.38;16.23;;;10.60;99.90;;;;;;5077606;28;20511;-77
2021/12/29 03:28:25;;;;;;;30.58;17.58;;;10.60;99.90;;;;;;5074685;28;20027;-77
2021/12/29 03:30:54;;;;;;;34.50;15.60;;;10.50;99.90;;;;;;5080468;28;20365;-78
2021/12/29 03:33:21;;;;;;;35.60;17.45;;;10.60;99.90;;;;;;5090123;28;20119;-77
2021/12/29 03:35:50;;;;;;;41.35;18.30;;;10.50;99.90;;;;;;5084467;28;20368;-77
2021/12/29 03:38:20;;;;;;;34.83;17.17;;;10.50;99.90;;;;;;5085797;28;20070;-77
2021/12/29 03:40:46;;;;;;;35.45;17.73;;;10.50;99.90;;;;;;5083953;28;20031;-77
2021/12/29 03:43:12;;;;;;;34.20;18.15;;;10.50;99.90;;;;;;5082584;28;20025;-77
2021/12/29 03:45:40;;;;;;;44.17;19.75;;;10.60;99.90;;;;;;5080930;28;20063;-77
2021/12/29 03:48:09;;;;;;;46.10;19.55;;;10.50;99.90;;;;;;5080719;28;20020;-77
2021/12/29 03:50:35;;;;;;;30.75;16.17;;;10.50;99.90;;;;;;5073942;28;20106;-77
2021/12/29 03:53:02;;;;;;;41.13;17.90;;;10.50;99.90;;;;;;5077758;28;20094;-78
2021/12/29 03:55:28;;;;;;;35.60;17.83;;;10.50;99.90;;;;;;5079596;28;20396;-78
2021/12/29 03:57:54;;;;;;;44.13;19.25;;;10.60;99.90;;;;;;5074841;28;20029;-78
2021/12/29 04:00:21;;;;;;;36.40;18.52;;;10.50;99.90;;;;;;5086612;28;20027;-77
2021/12/29 04:02:47;;;;;;;37.05;18.60;;;10.50;99.90;;;;;;5076705;28;20472;-78
2021/12/29 04:05:16;;;;;;;36.95;17.67;;;10.50;99.90;;;;;;5078743;28;20111;-78
2021/12/29 04:07:53;;;;;;;32.60;16.77;;;10.60;99.90;;;;;;5078018;28;20103;-78
2021/12/29 04:10:20;;;;;;;32.20;16.42;;;10.60;99.90;;;;;;5084204;28;20451;-78
2021/12/29 04:12:46;;;;;;;34.78;15.93;;;10.60;99.90;;;;;;5078356;28;20167;-78
2021/12/29 04:15:13;;;;;;;32.70;15.25;;;10.60;99.90;;;;;;5079263;28;20106;-78
2021/12/29 04:17:40;;;;;;;36.17;17.90;;;10.70;99.90;;;;;;5077121;28;20047;-77
2021/12/29 04:22:53;;;;;;;34.97;16.13;;;10.70;99.90;;;;;;5078830;28;20135;-78
2021/12/29 04:25:23;;;;;;;30.40;15.23;;;10.70;99.90;;;;;;5085813;28;20025;-78
2021/12/29 04:27:54;;;;;;;37.92;17.70;;;10.60;99.90;;;;;;5081109;28;20039;-77
2021/12/29 04:30:21;;;;;;;40.17;17.77;;;10.70;99.90;;;;;;5087526;28;20635;-78
2021/12/29 04:32:46;;;;;;;42.67;17.83;;;10.70;99.90;;;;;;5086737;28;20033;-77
2021/12/29 04:35:12;;;;;;;46.15;19.52;;;10.70;99.90;;;;;;5091899;28;20032;-77
2021/12/29 04:37:38;;;;;;;40.45;16.75;;;10.70;99.90;;;;;;5093285;28;20127;-78
2021/12/29 04:40:06;;;;;;;40.53;16.23;;;10.60;99.90;;;;;;5091232;28;20027;-77
2021/12/29 04:42:31;;;;;;;44.17;17.95;;;10.50;99.90;;;;;;5093177;28;20485;-77
2021/12/29 04:44:57;;;;;;;38.08;16.60;;;10.50;99.90;;;;;;5084897;28;20056;-77
2021/12/29 04:47:28;;;;;;;42.42;18.10;;;10.60;99.90;;;;;;5085683;28;20050;-77
2021/12/29 04:49:55;;;;;;;38.28;16.25;;;10.50;99.90;;;;;;5082460;28;20109;-77
2021/12/29 04:52:21;;;;;;;44.40;17.80;;;10.50;99.90;;;;;;5084052;28;20059;-77
2021/12/29 04:54:46;;;;;;;37.20;15.75;;;10.60;99.90;;;;;;5087230;28;20052;-77
2021/12/29 04:57:12;;;;;;;36.90;14.90;;;10.50;99.90;;;;;;5079634;28;20503;-77
2021/12/29 04:59:38;;;;;;;34.35;16.75;;;10.50;99.90;;;;;;5085050;28;20032;-77
2021/12/29 05:02:04;;;;;;;34.78;15.85;;;10.50;99.90;;;;;;5088657;28;20054;-77
2021/12/29 05:04:32;;;;;;;34.17;14.18;;;10.50;99.90;;;;;;5089625;28;20127;-77
2021/12/29 05:09:44;;;;;;;31.92;14.00;;;10.50;99.90;;;;;;5081541;28;20060;-77
2021/12/29 05:12:10;;;;;;;34.03;14.82;;;10.50;99.90;;;;;;5083731;28;20491;-77
2021/12/29 05:14:37;;;;;;;30.73;14.40;;;10.60;99.90;;;;;;5082641;28;20031;-77
2021/12/29 05:17:05;;;;;;;35.28;14.07;;;10.50;99.90;;;;;;5087669;28;20079;-77
2021/12/29 05:19:31;;;;;;;30.95;13.52;;;10.50;99.90;;;;;;5083005;28;20099;-77
2021/12/29 05:21:57;;;;;;;29.25;14.00;;;10.60;99.90;;;;;;5085404;28;20024;-76
2021/12/29 05:24:23;;;;;;;32.65;13.68;;;10.60;99.90;;;;;;5080513;28;20024;-77
2021/12/29 05:26:48;;;;;;;28.48;12.45;;;10.60;99.90;;;;;;5081852;28;20035;-77
2021/12/29 05:29:14;;;;;;;28.73;12.57;;;10.60;99.90;;;;;;5084376;28;20062;-76
2021/12/29 05:31:39;;;;;;;29.42;13.25;;;10.60;99.90;;;;;;5091538;28;20035;-77
2021/12/29 05:34:05;;;;;;;26.52;13.05;;;10.60;99.90;;;;;;5083101;28;20032;-77
2021/12/29 05:36:31;;;;;;;23.20;13.88;;;10.70;99.90;;;;;;5086072;28;20469;-76
2021/12/29 05:38:57;;;;;;;18.02;12.10;;;10.60;99.90;;;;;;5079502;28;20488;-77
2021/12/29 05:41:23;;;;;;;26.45;13.10;;;10.60;99.90;;;;;;5085546;28;20381;-77
2021/12/29 05:43:49;;;;;;;21.08;12.05;;;10.60;99.90;;;;;;5082052;28;20036;-76
2021/12/29 05:46:15;;;;;;;22.80;12.35;;;10.70;99.90;;;;;;5088310;28;20361;-76
2021/12/29 05:48:41;;;;;;;24.17;12.93;;;10.70;99.90;;;;;;5083206;28;20024;-76
2021/12/29 05:51:07;;;;;;;25.88;13.57;;;10.70;99.90;;;;;;5080101;28;20020;-76
2021/12/29 05:53:33;;;;;;;29.27;12.77;;;10.70;99.90;;;;;;5091159;28;20106;-77
2021/12/29 05:55:59;;;;;;;21.60;12.15;;;10.80;99.90;;;;;;5080047;28;20028;-76
2021/12/29 05:58:25;;;;;;;25.90;13.90;;;10.70;99.90;;;;;;5082347;28;20098;-76
2021/12/29 06:00:51;;;;;;;28.33;12.63;;;10.70;99.90;;;;;;5081846;28;20480;-77
2021/12/29 06:03:19;;;;;;;21.45;11.95;;;10.70;99.90;;;;;;5085228;28;20485;-76
2021/12/29 06:05:44;;;;;;;23.80;13.93;;;10.80;99.90;;;;;;5080197;28;20021;-77
2021/12/29 06:08:10;;;;;;;27.50;12.85;;;10.80;99.90;;;;;;5081999;28;20044;-77
2021/12/29 06:10:36;;;;;;;19.77;12.27;;;10.70;99.90;;;;;;5085694;28;20361;-77
2021/12/29 06:13:02;;;;;;;26.17;13.73;;;10.60;99.90;;;;;;5084085;28;20114;-76
2021/12/29 06:15:28;;;;;;;21.67;12.52;;;10.70;99.90;;;;;;5085698;28;20124;-76
2021/12/29 06:17:53;;;;;;;22.77;12.25;;;10.70;99.90;;;;;;5081119;28;20056;-77
2021/12/29 06:20:19;;;;;;;21.95;14.00;;;10.70;99.90;;;;;;5079778;28;20472;-77
2021/12/29 06:22:45;;;;;;;21.77;11.93;;;10.70;99.90;;;;;;5086608;28;20035;-77
2021/12/29 06:25:14;;;;;;;18.52;11.68;;;10.70;99.90;;;;;;5084702;28;20051;-76
2021/12/29 06:27:40;;;;;;;23.48;12.88;;;10.70;99.90;;;;;;5086492;28;20549;-76
2021/12/29 06:30:08;;;;;;;24.92;13.10;;;10.70;99.90;;;;;;5083142;28;20048;-76
2021/12/29 06:32:34;;;;;;;18.27;11.98;;;10.80;99.90;;;;;;5087398;28;20058;-77
2021/12/29 06:35:00;;;;;;;22.55;12.07;;;10.70;99.90;;;;;;5086963;28;20060;-76
2021/12/29 06:37:26;;;;;;;19.27;12.55;;;10.70;99.90;;;;;;5078760;28;20074;-76
2021/12/29 06:39:51;;;;;;;27.20;14.10;;;10.80;99.90;;;;;;5081683;28;20035;-77
2021/12/29 06:42:18;;;;;;;26.75;13.13;;;10.80;99.90;;;;;;5084114;28;20028;-76
2021/12/29 06:44:45;;;;;;;23.75;14.48;;;10.70;99.90;;;;;;5080414;28;20534;-77
2021/12/29 06:47:12;;;;;;;21.52;12.55;;;10.80;99.90;;;;;;5079841;28;20017;-77
2021/12/29 06:49:39;;;;;;;29.08;13.45;;;10.80;99.90;;;;;;5083570;28;20032;-77
2021/12/29 06:52:05;;;;;;;23.65;13.82;;;10.80;99.90;;;;;;5080204;28;20079;-77
2021/12/29 06:54:32;;;;;;;25.77;14.88;;;10.80;99.90;;;;;;5078575;28;20429;-77
2021/12/29 06:56:57;;;;;;;26.25;13.43;;;10.80;99.90;;;;;;5078367;28;20040;-76
2021/12/29 06:59:23;;;;;;;28.58;16.02;;;10.70;99.90;;;;;;5080755;28;20035;-77
2021/12/29 07:01:49;;;;;;;27.58;14.90;;;10.70;99.90;;;;;;5078230;28;20027;-77
2021/12/29 07:04:15;;;;;;;28.20;14.85;;;10.70;99.90;;;;;;5082107;28;20036;-77
2021/12/29 07:06:41;;;;;;;25.63;15.00;;;10.70;99.90;;;;;;5075073;28;20024;-77
2021/12/29 07:09:07;;;;;;;22.55;13.43;;;10.80;99.90;;;;;;5081170;28;20067;-77
2021/12/29 07:11:33;;;;;;;26.52;13.48;;;10.80;99.90;;;;;;5087792;28;20055;-77
2021/12/29 07:14:03;;;;;;;25.88;13.57;;;10.80;99.90;;;;;;5083373;28;20495;-76
2021/12/29 07:16:29;;;;;;;25.17;14.10;;;10.80;99.90;;;;;;5082632;28;20048;-77
2021/12/29 07:18:54;;;;;;;22.10;14.15;;;10.80;99.90;;;;;;5086847;28;20078;-76
2021/12/29 07:21:20;;;;;;;26.27;13.30;;;10.80;99.90;;;;;;5079422;28;20459;-76
2021/12/29 07:23:46;;;;;;;19.40;13.48;;;10.80;99.90;;;;;;5079665;28;20092;-76
2021/12/29 07:26:11;;;;;;;23.10;13.50;;;10.70;99.90;;;;;;5081216;28;20374;-76
2021/12/29 07:28:38;;;;;;;24.98;13.88;;;10.70;99.90;;;;;;5083594;28;20047;-76
2021/12/29 07:31:04;;;;;;;22.10;13.90;;;10.80;99.90;;;;;;5079085;28;20027;-76
2021/12/29 07:33:32;;;;;;;23.35;14.57;;;10.80;99.90;;;;;;5079423;28;20032;-76
2021/12/29 07:35:58;;;;;;;25.15;13.48;;;10.80;99.90;;;;;;5087258;28;20039;-76
2021/12/29 07:38:23;;;;;;;19.17;11.88;;;10.80;99.90;;;;;;5081293;28;20507;-76
2021/12/29 07:40:49;;;;;;;23.25;12.90;;;10.80;99.90;;;;;;5082661;28;20403;-77
2021/12/29 07:43:15;;;;;;;22.13;14.50;;;10.70;99.90;;;;;;5080529;28;20478;-76
2021/12/29 07:45:42;;;;;;;21.15;12.80;;;10.70;99.90;;;;;;5080178;28;20078;-77
2021/12/29 07:48:09;;;;;;;21.38;13.05;;;10.70;99.90;;;;;;5079861;28;20025;-77
2021/12/29 07:50:36;;;;;;;23.30;14.23;;;10.70;99.90;;;;;;5081521;28;20028;-76
2021/12/29 07:53:03;;;;;;;21.58;13.45;;;10.70;99.90;;;;;;5084755;28;20077;-76
2021/12/29 07:55:29;;;;;;;21.33;13.10;;;10.80;99.90;;;;;;5077824;28;20028;-77
2021/12/29 07:57:55;;;;;;;21.38;13.40;;;10.70;99.90;;;;;;5074412;28;20435;-77
2021/12/29 08:00:21;;;;;;;23.95;14.45;;;10.80;99.90;;;;;;5082251;28;20029;-72
2021/12/29 08:02:47;;;;;;;27.27;14.95;;;10.80;99.90;;;;;;5087072;28;20035;-77
2021/12/29 08:05:13;;;;;;;21.95;13.35;;;10.80;99.90;;;;;;5080406;28;20036;-77
2021/12/29 08:07:39;;;;;;;19.58;13.13;;;10.80;99.90;;;;;;5078516;28;20028;-77
2021/12/29 08:10:06;;;;;;;22.92;14.07;;;10.70;99.90;;;;;;5082072;28;20032;-77
2021/12/29 08:12:32;;;;;;;21.58;12.95;;;10.80;99.90;;;;;;5079585;28;20027;-77
2021/12/29 08:14:58;;;;;;;19.67;13.25;;;10.80;99.90;;;;;;5083194;28;20032;-76
2021/12/29 08:17:24;;;;;;;23.40;12.95;;;10.80;99.90;;;;;;5078300;28;20028;-77
2021/12/29 08:19:50;;;;;;;19.15;12.98;;;10.70;99.90;;;;;;5077812;28;20028;-77
2021/12/29 08:22:17;;;;;;;20.98;12.75;;;10.70;99.90;;;;;;5082511;28;20032;-76
2021/12/29 08:24:43;;;;;;;20.00;12.02;;;10.80;99.90;;;;;;5082303;28;20017;-77
2021/12/29 08:27:09;;;;;;;21.27;12.75;;;10.80;99.90;;;;;;5080360;28;20033;-76
2021/12/29 08:29:35;;;;;;;27.75;13.13;;;10.80;99.90;;;;;;5081195;28;20025;-76
2021/12/29 08:32:01;;;;;;;21.25;13.60;;;10.80;99.90;;;;;;5080885;28;20034;-76
2021/12/29 08:34:27;;;;;;;21.20;13.45;;;10.80;99.90;;;;;;5088564;28;20039;-76
2021/12/29 08:36:53;;;;;;;17.38;11.48;;;10.80;99.90;;;;;;5075570;28;20452;-76
2021/12/29 08:39:19;;;;;;;22.90;14.02;;;10.90;99.90;;;;;;5081740;28;20043;-76
2021/12/29 08:41:46;;;;;;;19.50;14.40;;;10.80;99.90;;;;;;5079196;28;20418;-76
2021/12/29 08:44:12;;;;;;;19.13;12.05;;;10.80;99.90;;;;;;5082803;28;20029;-76
2021/12/29 08:46:38;;;;;;;24.83;13.82;;;10.70;99.90;;;;;;5083205;28;20069;-76
2021/12/29 08:49:04;;;;;;;22.40;13.82;;;10.80;99.90;;;;;;5078199;28;20427;-76
2021/12/29 08:51:29;;;;;;;21.50;14.57;;;10.70;99.90;;;;;;5085691;28;20449;-76
2021/12/29 08:53:57;;;;;;;26.83;15.15;;;10.70;99.90;;;;;;5078298;28;20033;-75
2021/12/29 08:56:23;;;;;;;23.23;14.18;;;10.80;99.90;;;;;;5081029;28;20037;-76
2021/12/29 08:58:50;;;;;;;17.25;12.77;;;10.80;99.90;;;;;;5087962;28;20477;-76
2021/12/29 09:01:17;;;;;;;20.45;13.55;;;10.70;99.90;;;;;;5077567;28;20051;-75
2021/12/29 09:03:42;;;;;;;18.42;13.73;;;10.70;99.90;;;;;;5081854;28;20032;-76
2021/12/29 09:06:09;;;;;;;20.05;12.65;;;10.70;99.90;;;;;;5083140;28;20418;-76
2021/12/29 09:08:34;;;;;;;17.20;12.25;;;10.70;99.90;;;;;;5082510;28;20041;-76
2021/12/29 09:11:00;;;;;;;21.65;12.30;;;10.90;99.90;;;;;;5079809;28;20365;-78
2021/12/29 09:13:26;;;;;;;19.35;11.38;;;10.80;99.90;;;;;;5079693;28;20032;-78
2021/12/29 09:15:56;;;;;;;16.92;9.80;;;10.80;99.90;;;;;;5082755;28;20019;-77
2021/12/29 09:18:26;;;;;;;15.98;9.95;;;10.70;99.90;;;;;;5080414;28;20032;-77
2021/12/29 09:20:52;;;;;;;19.58;10.60;;;10.80;99.90;;;;;;5080848;28;20020;-77
2021/12/29 09:23:18;;;;;;;14.32;8.90;;;10.80;99.90;;;;;;5081738;28;20060;-78
2021/12/29 09:25:46;;;;;;;17.25;9.40;;;10.70;99.90;;;;;;5078647;28;20098;-78
2021/12/29 09:28:15;;;;;;;21.77;8.98;;;10.70;99.90;;;;;;5082399;28;20033;-78
2021/12/29 09:30:43;;;;;;;20.90;9.90;;;10.80;99.90;;;;;;5076399;28;20050;-78
2021/12/29 09:33:09;;;;;;;16.17;8.82;;;10.70;99.90;;;;;;5084784;28;20064;-77
2021/12/29 09:35:36;;;;;;;15.32;9.05;;;10.70;99.90;;;;;;5085284;28;20067;-77
2021/12/29 09:38:03;;;;;;;17.48;8.55;;;10.80;99.90;;;;;;5082323;28;20040;-77
2021/12/29 09:40:29;;;;;;;21.15;10.45;;;10.80;99.90;;;;;;5085055;28;20637;-78
2021/12/29 09:42:55;;;;;;;18.85;9.38;;;10.80;99.90;;;;;;5081672;28;20052;-77
2021/12/29 09:45:22;;;;;;;16.88;8.63;;;10.80;99.90;;;;;;5079586;28;20475;-78
2021/12/29 09:47:49;;;;;;;18.05;8.45;;;10.80;99.90;;;;;;5082611;28;20484;-78
2021/12/29 09:50:19;;;;;;;16.95;8.23;;;10.90;99.90;;;;;;5080630;28;20038;-78
2021/12/29 09:52:45;;;;;;;19.15;8.90;;;10.90;99.90;;;;;;5079373;28;20634;-77
2021/12/29 09:55:15;;;;;;;18.80;8.85;;;10.90;99.90;;;;;;5079108;28;20373;-77
2021/12/29 09:57:47;;;;;;;17.83;8.10;;;11.00;99.90;;;;;;5083116;28;20032;-77
2021/12/29 10:00:28;;;;;;;12.15;7.63;;;11.00;99.90;;;;;;5077403;28;20051;-77
2021/12/29 10:02:56;;;;;;;26.90;8.75;;;11.00;99.90;;;;;;5079801;28;20013;-77
2021/12/29 10:05:24;;;;;;;17.33;8.13;;;11.00;99.90;;;;;;5081810;28;20033;-78
2021/12/29 10:08:12;;;;;;;21.52;8.20;;;11.00;99.90;;;;;;5089500;28;20021;-74
2021/12/29 10:10:41;;;;;;;15.88;7.43;;;11.00;99.90;;;;;;5079093;28;20025;-78
2021/12/29 10:13:08;;;;;;;15.32;7.85;;;11.00;99.90;;;;;;5092314;28;20468;-73
2021/12/29 10:15:51;;;;;;;13.48;7.50;;;11.10;99.90;;;;;;5083584;28;20032;-79
2021/12/29 10:18:20;;;;;;;20.10;8.07;;;11.10;99.90;;;;;;5083547;28;20546;-78
2021/12/29 10:20:53;;;;;;;16.67;8.10;;;11.20;99.90;;;;;;5081898;28;20021;-79
2021/12/29 10:23:41;;;;;;;18.88;7.32;;;11.20;99.90;;;;;;5084995;28;20032;-79
2021/12/29 10:26:18;;;;;;;19.05;7.22;;;11.30;99.90;;;;;;5081214;28;20036;-78
2021/12/29 10:28:53;;;;;;;16.08;6.65;;;11.30;99.90;;;;;;5082208;28;20024;-79
2021/12/29 10:31:23;;;;;;;15.50;6.63;;;11.30;99.90;;;;;;5081956;28;20032;-80
2021/12/29 10:34:13;;;;;;;16.33;6.57;;;11.20;99.90;;;;;;5079465;28;20028;-79
2021/12/29 10:36:51;;;;;;;15.75;6.28;;;11.20;99.90;;;;;;5081535;28;20035;-79
2021/12/29 10:39:30;;;;;;;16.48;6.65;;;11.20;99.90;;;;;;5078514;28;20040;-79
2021/12/29 10:41:59;;;;;;;13.45;6.57;;;11.20;99.90;;;;;;5084708;28;20028;-80
2021/12/29 10:44:48;;;;;;;23.67;6.47;;;11.20;99.90;;;;;;5080428;28;20032;-80
2021/12/29 10:47:26;;;;;;;12.68;6.10;;;11.20;99.90;;;;;;5083296;28;20388;-79
2021/12/29 10:49:56;;;;;;;16.20;6.38;;;11.20;99.90;;;;;;5083559;28;20020;-80
2021/12/29 10:52:35;;;;;;;14.55;6.10;;;11.20;99.90;;;;;;5083681;28;20032;-79
2021/12/29 10:55:04;;;;;;;15.23;5.75;;;11.20;99.90;;;;;;5087897;28;20080;-80
2021/12/29 10:57:30;;;;;;;15.00;5.53;;;11.30;99.90;;;;;;5082294;28;20086;-78
2021/12/29 10:59:57;;;;;;;21.10;6.35;;;11.30;99.90;;;;;;5081514;28;20055;-80
2021/12/29 11:02:33;;;;;;;19.48;5.90;;;11.30;99.90;;;;;;5078199;28;20036;-81
2021/12/29 11:05:10;;;;;;;17.48;5.82;;;11.30;99.90;;;;;;5081452;28;20063;-80
2021/12/29 11:07:39;;;;;;;17.80;6.10;;;11.30;99.90;;;;;;5086059;28;20103;-80
2021/12/29 11:10:11;;;;;;;16.50;6.35;;;11.30;99.90;;;;;;5083939;28;20078;-79
2021/12/29 11:12:56;;;;;;;14.77;6.95;;;11.30;99.90;;;;;;5080656;28;20028;-80
2021/12/29 11:15:28;;;;;;;18.25;6.45;;;11.30;99.90;;;;;;5077375;28;20032;-78
2021/12/29 11:17:55;;;;;;;13.75;5.43;;;11.30;99.90;;;;;;5081312;28;20035;-78
2021/12/29 11:20:25;;;;;;;15.13;5.88;;;11.30;99.90;;;;;;5081382;28;20035;-79
2021/12/29 11:22:51;;;;;;;16.05;7.13;;;11.30;99.90;;;;;;5081287;28;20045;-78
2021/12/29 11:25:31;;;;;;;21.40;6.82;;;11.20;99.90;;;;;;5085277;28;20035;-79
2021/12/29 11:27:56;;;;;;;13.15;5.88;;;11.30;99.90;;;;;;5080545;28;20077;-79
2021/12/29 11:30:22;;;;;;;20.00;6.55;;;11.30;99.90;;;;;;5081345;28;20034;-79
2021/12/29 11:32:49;;;;;;;20.02;6.72;;;11.40;99.90;;;;;;5078459;28;20427;-78
2021/12/29 11:35:24;;;;;;;19.42;6.13;;;11.30;99.90;;;;;;5082919;28;20036;-78
2021/12/29 11:38:00;;;;;;;19.38;5.88;;;11.30;99.90;;;;;;5086484;28;20028;-79
2021/12/29 11:40:31;;;;;;;23.60;6.43;;;11.30;99.90;;;;;;5082132;28;20454;-79
2021/12/29 11:42:57;;;;;;;17.45;6.50;;;11.30;99.90;;;;;;5086779;28;20032;-80
2021/12/29 11:45:24;;;;;;;27.10;6.13;;;11.30;99.90;;;;;;5075246;28;20024;-80
2021/12/29 11:47:53;;;;;;;20.02;6.93;;;11.30;99.90;;;;;;5083395;28;20028;-80
2021/12/29 11:50:26;;;;;;;20.95;6.43;;;11.30;99.90;;;;;;5078333;28;20016;-80
2021/12/29 11:53:06;;;;;;;15.27;6.65;;;11.20;99.90;;;;;;5083079;28;20024;-81
2021/12/29 11:55:35;;;;;;;12.40;5.65;;;11.30;99.90;;;;;;5077817;28;20383;-81
2021/12/29 11:58:24;;;;;;;19.58;6.47;;;11.30;99.90;;;;;;5082019;28;20085;-81
2021/12/29 12:01:05;;;;;;;20.23;6.57;;;11.30;99.90;;;;;;5081937;28;20024;-80
2021/12/29 12:03:43;;;;;;;16.38;6.32;;;11.40;99.90;;;;;;5082889;28;20044;-79
2021/12/29 12:06:41;;;;;;;20.02;6.10;;;11.40;99.90;;;;;;5076857;28;20020;-78
2021/12/29 12:09:21;;;;;;;13.52;5.45;;;11.40;99.90;;;;;;5071570;28;20041;-76
2021/12/29 12:11:49;;;;;;;16.92;5.85;;;11.40;99.90;;;;;;5077472;28;20017;-76
2021/12/29 12:14:31;;;;;;;16.20;5.85;;;11.30;99.90;;;;;;5079119;28;20036;-76
2021/12/29 12:16:58;;;;;;;20.83;6.97;;;11.40;99.90;;;;;;5078491;28;20028;-76
2021/12/29 12:19:28;;;;;;;19.63;7.15;;;11.40;99.90;;;;;;5079982;28;20140;-76
2021/12/29 12:22:23;;;;;;;19.80;6.55;;;11.40;99.90;;;;;;5077846;28;20032;-76
2021/12/29 12:24:51;;;;;;;21.48;6.55;;;11.40;99.90;;;;;;5066017;28;20048;-76
2021/12/29 12:27:36;;;;;;;14.90;6.07;;;11.40;99.90;;;;;;5079921;28;20039;-76
2021/12/29 12:30:11;;;;;;;14.45;5.40;;;11.40;99.90;;;;;;5078245;28;20102;-76
2021/12/29 12:32:52;;;;;;;18.20;5.20;;;11.40;99.90;;;;;;5078768;28;20022;-76
2021/12/29 12:35:27;;;;;;;10.35;5.18;;;11.40;99.90;;;;;;5080665;28;20119;-76
2021/12/29 12:37:53;;;;;;;16.55;5.13;;;11.40;99.90;;;;;;5080088;28;20086;-76
2021/12/29 12:40:28;;;;;;;16.35;5.18;;;11.30;99.90;;;;;;5080246;28;20086;-76
2021/12/29 12:43:12;;;;;;;13.18;4.82;;;11.40;99.90;;;;;;5079514;28;20024;-75
2021/12/29 12:45:44;;;;;;;15.77;5.55;;;11.40;99.90;;;;;;5085093;28;20116;-76